Time;durP1;ratioP1;P1;durP2;ratioP2;P2;SDS_P1;SDS_P2;PMS_P1;PMS_P2;Temp;Humidity;BMP_temperature;BMP_pressure;BME280_temperature;BME280_humidity;BME280_pressure;Samples;Min_cycle;Max_cycle;Signal;HPM_P1;HPM_P2
2021/12/11 00:01:06;;;;;;;58.42;20.65;;;0.40;91.10;;;;;;5048527;28;20132;-81
2021/12/11 00:03:41;;;;;;;58.20;18.93;;;0.40;91.10;;;;;;5063861;28;20086;-81
2021/12/11 00:06:12;;;;;;;65.80;21.50;;;0.40;91.10;;;;;;5069675;28;20537;-81
2021/12/11 00:08:41;;;;;;;62.97;20.08;;;0.40;91.10;;;;;;5066447;28;20083;-81
2021/12/11 00:11:33;;;;;;;64.20;21.20;;;0.40;91.10;;;;;;5071730;28;20470;-81
2021/12/11 00:14:03;;;;;;;85.03;26.40;;;0.40;91.10;;;;;;5042910;28;20103;-81
2021/12/11 00:16:31;;;;;;;101.17;31.10;;;0.40;91.10;;;;;;5049448;28;20519;-81
2021/12/11 00:19:02;;;;;;;106.70;29.53;;;0.40;91.10;;;;;;5029689;28;20079;-81
2021/12/11 00:21:30;;;;;;;109.60;31.35;;;0.30;91.10;;;;;;5050365;28;20070;-81
2021/12/11 00:24:07;;;;;;;97.83;28.33;;;0.30;91.10;;;;;;5053308;28;20110;-80
2021/12/11 00:26:42;;;;;;;103.53;29.00;;;0.30;91.10;;;;;;5066293;28;20080;-81
2021/12/11 00:29:09;;;;;;;114.10;30.30;;;0.30;91.10;;;;;;5050154;28;20078;-81
2021/12/11 00:31:41;;;;;;;110.83;31.67;;;0.30;91.10;;;;;;5066626;28;20066;-81
2021/12/11 00:34:11;;;;;;;99.43;30.60;;;0.30;91.10;;;;;;5052670;28;20083;-82
2021/12/11 00:36:37;;;;;;;94.20;27.37;;;0.30;91.10;;;;;;5031379;28;20076;-81
2021/12/11 00:39:07;;;;;;;109.67;31.13;;;0.30;91.10;;;;;;5023145;28;20083;-81
2021/12/11 00:41:34;;;;;;;89.27;28.10;;;0.20;91.10;;;;;;5054111;28;20075;-81
2021/12/11 00:44:01;;;;;;;77.03;25.40;;;0.20;91.10;;;;;;5063561;28;20166;-86
2021/12/11 00:46:28;;;;;;;87.97;28.20;;;0.30;91.10;;;;;;5025177;28;20174;-82
2021/12/11 00:49:05;;;;;;;74.30;25.10;;;0.30;91.20;;;;;;5068125;28;20091;-82
2021/12/11 00:51:31;;;;;;;75.33;24.70;;;0.30;91.20;;;;;;5064340;28;20477;-82
2021/12/11 00:53:59;;;;;;;62.47;21.83;;;0.30;91.20;;;;;;5051697;28;20098;-81
2021/12/11 00:56:32;;;;;;;71.00;22.93;;;0.30;91.20;;;;;;5061571;28;20080;-81
2021/12/11 00:59:02;;;;;;;68.13;21.53;;;0.30;91.20;;;;;;5071669;28;20067;-81
2021/12/11 01:01:34;;;;;;;63.10;20.60;;;0.30;91.20;;;;;;5048335;28;20070;-82
2021/12/11 01:04:09;;;;;;;65.80;21.90;;;0.30;91.20;;;;;;5052541;28;20079;-82
2021/12/11 01:06:40;;;;;;;60.90;22.73;;;0.30;91.20;;;;;;5050885;28;20070;-82
2021/12/11 01:09:06;;;;;;;66.77;22.63;;;0.30;91.20;;;;;;5068777;28;20081;-81
2021/12/11 01:11:36;;;;;;;55.33;20.00;;;0.40;91.20;;;;;;5052825;28;20083;-81
2021/12/11 01:14:19;;;;;;;62.87;21.80;;;0.40;91.20;;;;;;5047603;28;20423;-81
2021/12/11 01:16:57;;;;;;;71.47;23.03;;;0.40;91.20;;;;;;5041906;28;20169;-81
2021/12/11 01:19:27;;;;;;;67.10;23.90;;;0.40;91.30;;;;;;5051158;28;20086;-81
2021/12/11 01:21:57;;;;;;;68.37;23.90;;;0.40;91.60;;;;;;5030953;28;20079;-81
2021/12/11 01:24:30;;;;;;;66.93;23.17;;;0.40;91.60;;;;;;5038332;28;20079;-81
2021/12/11 01:27:00;;;;;;;65.53;23.00;;;0.30;91.40;;;;;;5044624;28;20535;-81
2021/12/11 01:29:29;;;;;;;62.87;23.03;;;0.40;91.20;;;;;;5052556;28;20172;-81
2021/12/11 01:31:56;;;;;;;61.67;22.10;;;0.40;91.20;;;;;;5027809;28;20073;-81
2021/12/11 01:34:24;;;;;;;64.30;23.00;;;0.30;91.20;;;;;;5011212;28;20553;-81
2021/12/11 01:36:50;;;;;;;77.00;23.47;;;0.30;91.20;;;;;;5032863;28;20090;-82
2021/12/11 01:39:20;;;;;;;69.37;23.40;;;0.30;91.20;;;;;;5031707;28;20076;-81
2021/12/11 01:41:48;;;;;;;70.57;24.33;;;0.40;91.20;;;;;;5049466;28;20063;-81
2021/12/11 01:44:21;;;;;;;63.77;21.20;;;0.30;91.20;;;;;;5048587;28;20144;-81
2021/12/11 01:46:48;;;;;;;65.47;22.67;;;0.30;91.20;;;;;;5064880;28;20084;-81
2021/12/11 01:49:21;;;;;;;68.20;21.17;;;0.30;91.10;;;;;;5045848;28;20530;-82
2021/12/11 01:52:01;;;;;;;68.00;24.17;;;0.30;91.20;;;;;;5064007;28;20240;-81
2021/12/11 01:54:35;;;;;;;70.37;23.70;;;0.20;91.10;;;;;;5052364;28;20435;-81
2021/12/11 01:57:12;;;;;;;67.87;23.23;;;0.20;91.10;;;;;;5043491;28;20074;-81
2021/12/11 01:59:41;;;;;;;64.47;22.90;;;0.20;91.10;;;;;;5041737;28;20067;-81
2021/12/11 02:02:10;;;;;;;66.13;23.63;;;0.10;91.10;;;;;;5047121;28;20114;-81
2021/12/11 02:04:41;;;;;;;64.77;22.23;;;0.20;91.20;;;;;;5040361;28;20075;-81
2021/12/11 02:07:13;;;;;;;65.80;24.63;;;0.10;91.10;;;;;;5069329;28;20075;-81
2021/12/11 02:09:44;;;;;;;71.63;23.37;;;0.10;91.10;;;;;;5047149;28;20553;-81
2021/12/11 02:12:14;;;;;;;73.30;25.70;;;0.10;91.20;;;;;;5047535;28;20177;-81
2021/12/11 02:14:45;;;;;;;68.53;22.53;;;0.10;91.20;;;;;;5065590;28;20071;-82
2021/12/11 02:17:20;;;;;;;69.57;23.48;;;0.00;91.10;;;;;;5021013;28;20075;-81
2021/12/11 02:19:48;;;;;;;67.13;23.40;;;0.00;91.10;;;;;;5051392;28;20083;-81
2021/12/11 02:22:24;;;;;;;67.73;22.57;;;0.00;91.10;;;;;;5048530;28;20079;-81
2021/12/11 02:24:54;;;;;;;60.00;20.53;;;0.00;91.10;;;;;;5066346;28;20214;-82
2021/12/11 02:27:26;;;;;;;72.77;23.40;;;0.00;91.10;;;;;;5063679;28;20112;-81
2021/12/11 02:30:15;;;;;;;62.70;21.77;;;-0.10;91.10;;;;;;5054284;28;20502;-81
2021/12/11 02:32:49;;;;;;;53.80;20.27;;;-0.10;91.10;;;;;;5049874;28;20075;-81
2021/12/11 02:35:32;;;;;;;59.43;22.07;;;-0.10;91.50;;;;;;5063536;28;20279;-81
2021/12/11 02:38:09;;;;;;;55.33;20.93;;;-0.10;91.10;;;;;;5048047;28;20075;-81
2021/12/11 02:40:47;;;;;;;50.73;19.37;;;-0.10;91.40;;;;;;5049789;28;20066;-82
2021/12/11 02:43:48;;;;;;;50.93;19.13;;;-0.20;91.10;;;;;;5038756;28;20070;-81
2021/12/11 02:46:19;;;;;;;46.92;18.05;;;-0.20;91.10;;;;;;5060489;28;20177;-82
2021/12/11 02:49:00;;;;;;;52.67;18.52;;;-0.20;91.10;;;;;;5061853;28;20082;-82
2021/12/11 02:51:40;;;;;;;51.07;18.93;;;-0.20;91.10;;;;;;5053802;28;20111;-81
2021/12/11 02:54:32;;;;;;;48.90;18.33;;;-0.20;91.00;;;;;;5050069;28;20137;-82
2021/12/11 02:57:04;;;;;;;52.00;19.38;;;-0.20;91.10;;;;;;5062006;28;20095;-81
2021/12/11 02:59:33;;;;;;;49.47;18.77;;;-0.20;91.10;;;;;;5067145;28;20089;-81
2021/12/11 03:02:11;;;;;;;49.17;18.23;;;-0.30;91.10;;;;;;5033477;28;20087;-82
2021/12/11 03:04:47;;;;;;;54.30;20.20;;;-0.30;91.10;;;;;;5053693;28;20554;-81
2021/12/11 03:07:14;;;;;;;52.90;19.13;;;-0.30;91.10;;;;;;5049570;28;20078;-81
2021/12/11 03:09:49;;;;;;;53.70;18.53;;;-0.30;91.10;;;;;;5031438;28;20445;-81
2021/12/11 03:12:16;;;;;;;58.27;19.90;;;-0.30;91.20;;;;;;5050952;28;20569;-81
2021/12/11 03:14:44;;;;;;;50.43;18.40;;;-0.30;91.10;;;;;;5033353;28;20088;-81
2021/12/11 03:17:12;;;;;;;49.13;18.93;;;-0.30;91.10;;;;;;5049449;28;20083;-81
2021/12/11 03:19:41;;;;;;;44.87;18.17;;;-0.30;91.10;;;;;;5050146;28;20099;-81
2021/12/11 03:22:10;;;;;;;44.40;16.80;;;-0.30;91.10;;;;;;5044539;28;20102;-81
2021/12/11 03:24:37;;;;;;;44.43;16.67;;;-0.30;91.00;;;;;;5067734;28;20096;-82
2021/12/11 03:27:03;;;;;;;49.37;16.17;;;-0.40;91.00;;;;;;5053192;28;20078;-81
2021/12/11 03:29:30;;;;;;;50.90;17.57;;;-0.40;91.00;;;;;;5054719;28;20099;-81
2021/12/11 03:31:56;;;;;;;45.90;18.50;;;-0.40;91.00;;;;;;5067554;28;20078;-81
2021/12/11 03:34:25;;;;;;;38.67;16.13;;;-0.40;91.00;;;;;;5069993;28;20095;-81
2021/12/11 03:36:52;;;;;;;40.43;15.63;;;-0.40;91.00;;;;;;5053121;28;20570;-81
2021/12/11 03:39:26;;;;;;;42.30;15.47;;;-0.40;91.00;;;;;;5059923;28;20076;-81
2021/12/11 03:41:54;;;;;;;41.83;14.27;;;-0.50;90.90;;;;;;5070497;28;20427;-81
2021/12/11 03:44:20;;;;;;;43.73;14.47;;;-0.50;90.90;;;;;;5047976;28;20075;-81
2021/12/11 03:46:53;;;;;;;40.70;14.87;;;-0.50;91.00;;;;;;5033837;28;20536;-81
2021/12/11 03:49:22;;;;;;;33.33;14.30;;;-0.50;90.90;;;;;;5069412;28;20125;-81
2021/12/11 03:51:50;;;;;;;36.30;14.40;;;-0.50;90.90;;;;;;5047708;28;20150;-81
2021/12/11 03:54:20;;;;;;;32.43;13.63;;;-0.50;90.90;;;;;;5025812;28;20646;-81
2021/12/11 03:56:46;;;;;;;32.03;12.53;;;-0.50;90.90;;;;;;5045306;28;20067;-81
2021/12/11 03:59:14;;;;;;;30.20;12.43;;;-0.60;90.90;;;;;;5051808;28;20076;-81
2021/12/11 04:01:51;;;;;;;28.60;12.20;;;-0.50;90.90;;;;;;5032109;28;20075;-81
2021/12/11 04:04:25;;;;;;;31.90;13.10;;;-0.60;90.90;;;;;;5052360;28;20294;-81
2021/12/11 04:06:51;;;;;;;25.87;11.70;;;-0.60;90.90;;;;;;5054636;28;20089;-81
2021/12/11 04:09:18;;;;;;;31.60;12.80;;;-0.60;90.90;;;;;;5052157;28;20071;-81
2021/12/11 04:11:46;;;;;;;29.57;12.53;;;-0.60;90.90;;;;;;5033986;28;20080;-81
2021/12/11 04:14:15;;;;;;;39.13;13.70;;;-0.60;90.90;;;;;;5065994;28;20561;-81
2021/12/11 04:16:43;;;;;;;32.70;12.67;;;-0.60;90.90;;;;;;5070119;28;20071;-81
2021/12/11 04:19:09;;;;;;;33.53;12.43;;;-0.60;90.90;;;;;;5047524;28;20072;-80
2021/12/11 04:21:36;;;;;;;37.97;14.87;;;-0.60;90.90;;;;;;5060590;28;20072;-80
2021/12/11 04:24:05;;;;;;;35.90;15.43;;;-0.60;90.90;;;;;;5035830;28;20099;-81
2021/12/11 04:26:31;;;;;;;54.50;19.27;;;-0.60;90.90;;;;;;5048295;28;20147;-80
2021/12/11 04:28:57;;;;;;;51.00;20.00;;;-0.60;91.00;;;;;;5044829;28;20079;-81
2021/12/11 04:31:27;;;;;;;41.03;16.97;;;-0.60;91.00;;;;;;5044593;28;20564;-81
2021/12/11 04:33:59;;;;;;;41.33;15.60;;;-0.60;91.10;;;;;;5070394;28;20172;-81
2021/12/11 04:36:33;;;;;;;35.53;15.60;;;-0.60;91.00;;;;;;5050592;28;20070;-81
2021/12/11 04:39:00;;;;;;;38.67;15.00;;;-0.60;91.00;;;;;;5063508;28;20080;-80
2021/12/11 04:41:36;;;;;;;38.03;15.27;;;-0.60;91.00;;;;;;5052747;28;20096;-81
2021/12/11 04:44:10;;;;;;;33.50;13.83;;;-0.60;91.00;;;;;;5051493;28;20746;-81
2021/12/11 04:46:36;;;;;;;37.40;15.20;;;-0.60;91.10;;;;;;5051517;28;20070;-81
2021/12/11 04:51:42;;;;;;;35.27;13.80;;;-0.60;91.10;;;;;;5057494;28;20123;-80
2021/12/11 05:00:05;;;;;;;34.90;13.80;;;-0.60;91.00;;;;;;5069909;28;20076;-81
2021/12/11 05:11:00;;;;;;;34.40;13.97;;;-0.60;91.00;;;;;;5068155;28;20091;-80
2021/12/11 05:13:27;;;;;;;38.90;14.70;;;-0.70;90.90;;;;;;5048946;28;20580;-81
2021/12/11 05:15:55;;;;;;;44.40;16.00;;;-0.70;91.00;;;;;;5070059;28;20551;-81
2021/12/11 05:18:24;;;;;;;42.53;17.00;;;-0.70;91.00;;;;;;5047669;28;20079;-81
2021/12/11 05:20:54;;;;;;;40.87;15.77;;;-0.70;91.00;;;;;;5050422;28;20063;-81
2021/12/11 05:23:21;;;;;;;46.53;15.17;;;-0.70;91.00;;;;;;5050251;28;20081;-80
2021/12/11 05:25:47;;;;;;;42.23;16.80;;;-0.70;91.00;;;;;;5041548;28;20079;-80
2021/12/11 05:28:13;;;;;;;39.47;15.13;;;-0.70;91.00;;;;;;5048500;28;20068;-81
2021/12/11 05:30:47;;;;;;;42.03;15.57;;;-0.70;91.00;;;;;;5033379;28;20094;-80
2021/12/11 05:33:14;;;;;;;39.33;15.87;;;-0.70;91.00;;;;;;5043555;28;20084;-83
2021/12/11 05:35:41;;;;;;;42.17;16.17;;;-0.70;90.90;;;;;;5046101;28;20078;-80
2021/12/11 05:38:12;;;;;;;47.43;16.87;;;-0.70;90.90;;;;;;5042664;28;20072;-77
2021/12/11 05:40:41;;;;;;;41.35;15.95;;;-0.70;90.90;;;;;;5061582;28;20071;-81
2021/12/11 05:43:07;;;;;;;42.37;16.00;;;-0.80;91.00;;;;;;5057227;28;20423;-80
2021/12/11 05:45:33;;;;;;;45.40;17.80;;;-0.80;91.00;;;;;;5043762;28;20496;-79
2021/12/11 05:48:00;;;;;;;53.13;19.53;;;-0.80;91.00;;;;;;5055986;28;20093;-80
2021/12/11 05:50:33;;;;;;;53.60;19.67;;;-0.80;91.00;;;;;;5063586;28;20072;-80
2021/12/11 05:53:00;;;;;;;52.33;19.87;;;-0.80;91.00;;;;;;5039310;28;20162;-82
2021/12/11 05:55:28;;;;;;;56.60;20.03;;;-0.80;91.00;;;;;;5058606;28;20596;-86
2021/12/11 05:57:57;;;;;;;53.80;20.00;;;-0.80;91.00;;;;;;5029482;28;20145;-78
2021/12/11 06:00:34;;;;;;;52.53;20.23;;;-0.80;91.00;;;;;;5042021;28;20547;-78
2021/12/11 06:03:02;;;;;;;52.33;20.50;;;-0.80;91.00;;;;;;5043536;28;20201;-85
2021/12/11 06:05:28;;;;;;;54.77;20.20;;;-0.80;91.00;;;;;;5045264;28;20073;-84
2021/12/11 06:07:54;;;;;;;52.63;18.90;;;-0.80;91.00;;;;;;5043405;28;20445;-83
2021/12/11 06:10:22;;;;;;;48.93;19.27;;;-0.80;91.00;;;;;;5041052;28;20084;-83
2021/12/11 06:12:54;;;;;;;55.60;20.10;;;-0.80;91.00;;;;;;5057001;28;20082;-84
2021/12/11 06:15:20;;;;;;;59.00;22.03;;;-0.80;91.10;;;;;;5057937;28;20510;-84
2021/12/11 06:17:46;;;;;;;48.77;20.23;;;-0.80;91.10;;;;;;5053808;28;20163;-83
2021/12/11 06:20:18;;;;;;;54.10;20.03;;;-0.80;91.10;;;;;;5058073;28;20518;-83
2021/12/11 06:22:45;;;;;;;46.73;17.97;;;-0.80;91.10;;;;;;5040520;28;20076;-82
2021/12/11 06:25:18;;;;;;;51.60;19.53;;;-0.80;91.00;;;;;;5057989;28;20613;-85
2021/12/11 06:27:44;;;;;;;47.87;19.33;;;-0.80;91.00;;;;;;5038899;28;20096;-85
2021/12/11 06:30:12;;;;;;;54.93;21.60;;;-0.80;91.00;;;;;;5040938;28;20901;-85
2021/12/11 06:32:39;;;;;;;50.13;18.97;;;-0.80;91.00;;;;;;5040778;28;20423;-86
2021/12/11 06:35:20;;;;;;;60.37;23.30;;;-0.80;91.00;;;;;;5041065;28;20080;-86
2021/12/11 06:37:46;;;;;;;57.30;21.25;;;-0.80;91.00;;;;;;5042463;28;20604;-86
2021/12/11 06:40:13;;;;;;;55.67;21.93;;;-0.80;91.00;;;;;;5043851;28;20356;-84
2021/12/11 06:42:38;;;;;;;54.47;21.57;;;-0.90;91.00;;;;;;5012317;28;20630;-84
2021/12/11 06:45:05;;;;;;;57.03;23.00;;;-0.90;91.00;;;;;;5012992;28;20167;-86
2021/12/11 06:47:33;;;;;;;59.17;22.53;;;-0.80;91.00;;;;;;5043781;28;20063;-85
2021/12/11 06:50:00;;;;;;;62.80;22.30;;;-0.90;91.00;;;;;;5038340;28;20084;-85
2021/12/11 06:52:27;;;;;;;54.77;22.03;;;-0.90;91.00;;;;;;5038722;28;20106;-85
2021/12/11 06:54:54;;;;;;;54.73;21.20;;;-0.90;91.00;;;;;;5043172;28;20068;-84
2021/12/11 06:57:20;;;;;;;60.27;21.43;;;-0.90;91.00;;;;;;5027475;28;20144;-84
2021/12/11 06:59:47;;;;;;;57.03;22.23;;;-0.90;91.00;;;;;;5059887;28;20068;-84
2021/12/11 07:02:16;;;;;;;55.37;20.13;;;-0.90;91.00;;;;;;5045752;28;20076;-82
2021/12/11 07:04:42;;;;;;;59.43;21.93;;;-0.90;91.00;;;;;;5045936;28;20083;-83
2021/12/11 07:07:08;;;;;;;53.93;20.13;;;-0.90;91.00;;;;;;5043849;28;20080;-83
2021/12/11 07:09:34;;;;;;;51.77;18.57;;;-0.90;91.00;;;;;;5045308;28;20109;-86
2021/12/11 07:12:00;;;;;;;52.00;18.33;;;-0.90;90.90;;;;;;5044670;28;20112;-87
2021/12/11 07:14:29;;;;;;;52.83;19.60;;;-0.90;90.90;;;;;;5041589;28;20092;-85
2021/12/11 07:16:55;;;;;;;51.57;18.20;;;-0.90;91.00;;;;;;5042859;28;20072;-85
2021/12/11 07:19:21;;;;;;;53.87;19.20;;;-0.90;91.00;;;;;;5041482;28;20088;-84
2021/12/11 07:21:50;;;;;;;47.33;17.43;;;-0.90;91.00;;;;;;5045696;28;20075;-85
2021/12/11 07:24:19;;;;;;;50.53;19.73;;;-0.90;91.00;;;;;;5045843;28;20161;-84
2021/12/11 07:26:45;;;;;;;48.47;18.23;;;-0.90;91.00;;;;;;5028294;28;20086;-87
2021/12/11 07:29:15;;;;;;;47.47;17.53;;;-0.90;91.00;;;;;;5029130;28;20441;-86
2021/12/11 07:31:46;;;;;;;52.47;18.73;;;-0.90;90.90;;;;;;5049333;28;20129;-86
2021/12/11 07:34:13;;;;;;;47.03;17.23;;;-0.90;90.90;;;;;;5032819;28;20558;-86
2021/12/11 07:36:40;;;;;;;50.87;18.40;;;-1.00;90.90;;;;;;5047383;28;20098;-85
2021/12/11 07:39:09;;;;;;;50.73;16.80;;;-0.90;90.90;;;;;;5033962;28;20681;-85
2021/12/11 07:41:35;;;;;;;44.83;18.97;;;-1.00;90.90;;;;;;5046143;28;20148;-85
2021/12/11 07:44:01;;;;;;;43.80;17.40;;;-1.00;90.90;;;;;;5031794;28;20084;-82
2021/12/11 07:46:28;;;;;;;47.77;17.37;;;-1.00;90.90;;;;;;5029789;28;20095;-84
2021/12/11 07:48:57;;;;;;;56.77;19.67;;;-1.00;90.90;;;;;;5049735;28;21192;-84
2021/12/11 07:51:24;;;;;;;48.30;17.20;;;-1.00;90.90;;;;;;5065329;28;20110;-85
2021/12/11 07:53:50;;;;;;;49.90;17.57;;;-1.00;90.90;;;;;;5030764;28;20110;-84
2021/12/11 07:56:18;;;;;;;45.43;19.20;;;-1.00;90.80;;;;;;5046784;28;20079;-83
2021/12/11 07:58:45;;;;;;;51.73;17.73;;;-1.00;90.90;;;;;;5045929;28;20126;-84
2021/12/11 08:01:10;;;;;;;43.67;17.33;;;-1.00;90.90;;;;;;5045655;28;20518;-83
2021/12/11 08:03:37;;;;;;;62.00;20.00;;;-1.00;90.90;;;;;;5041647;28;20083;-82
2021/12/11 08:06:04;;;;;;;53.53;20.17;;;-1.00;90.90;;;;;;5046882;28;20161;-84
2021/12/11 08:08:30;;;;;;;51.77;20.13;;;-1.00;90.90;;;;;;5025112;28;20595;-83
2021/12/11 08:10:59;;;;;;;51.63;20.57;;;-1.00;90.90;;;;;;5045616;28;20195;-83
2021/12/11 08:13:26;;;;;;;55.90;21.27;;;-1.00;90.90;;;;;;5048700;28;20092;-84
2021/12/11 08:15:55;;;;;;;58.07;20.97;;;-0.90;91.00;;;;;;5018424;28;20087;-83
2021/12/11 08:18:22;;;;;;;55.73;22.27;;;-0.90;91.00;;;;;;5042688;28;20087;-83
2021/12/11 08:20:48;;;;;;;61.57;21.13;;;-0.90;91.00;;;;;;5029643;28;20153;-84
2021/12/11 08:23:16;;;;;;;61.83;20.43;;;-0.80;91.00;;;;;;5044847;28;20483;-84
2021/12/11 08:25:43;;;;;;;53.83;20.77;;;-0.90;91.00;;;;;;5046049;28;20134;-84
2021/12/11 08:28:13;;;;;;;55.80;21.87;;;-0.80;91.00;;;;;;5046563;28;20526;-84
2021/12/11 08:30:41;;;;;;;59.53;22.20;;;-0.80;91.00;;;;;;5063882;28;20547;-84
2021/12/11 08:33:07;;;;;;;56.23;20.90;;;-0.80;91.00;;;;;;5064366;28;20088;-84
2021/12/11 08:35:33;;;;;;;48.57;20.37;;;-0.80;91.00;;;;;;5048961;28;20155;-85
2021/12/11 08:38:00;;;;;;;54.07;20.77;;;-0.80;91.10;;;;;;5027598;28;20080;-83
2021/12/11 08:40:33;;;;;;;58.67;20.10;;;-0.70;91.10;;;;;;5050148;28;20082;-84
2021/12/11 08:43:00;;;;;;;55.50;20.30;;;-0.70;91.10;;;;;;5048281;28;20205;-83
2021/12/11 08:45:43;;;;;;;64.70;21.77;;;-0.70;91.10;;;;;;5064314;28;20079;-82
2021/12/11 08:48:11;;;;;;;59.90;22.50;;;-0.70;91.10;;;;;;5035905;28;20534;-83
2021/12/11 08:50:37;;;;;;;64.60;24.00;;;-0.60;91.10;;;;;;5044682;28;20082;-82
2021/12/11 08:53:03;;;;;;;60.17;23.37;;;-0.60;91.10;;;;;;5014461;28;20470;-85
2021/12/11 08:55:36;;;;;;;55.03;22.00;;;-0.50;91.20;;;;;;5046498;28;20071;-82
2021/12/11 08:58:05;;;;;;;60.23;22.73;;;-0.50;91.20;;;;;;5061449;28;20166;-81
2021/12/11 09:00:57;;;;;;;65.20;23.07;;;-0.40;91.30;;;;;;5065189;28;20125;-85
2021/12/11 09:03:38;;;;;;;65.83;25.07;;;-0.40;91.30;;;;;;5061702;28;20162;-87
2021/12/11 09:06:16;;;;;;;67.67;23.60;;;-0.40;91.30;;;;;;5045402;28;20589;-82
2021/12/11 09:09:16;;;;;;;63.80;24.00;;;-0.30;91.40;;;;;;5041064;28;20434;-79
2021/12/11 09:12:09;;;;;;;68.47;24.23;;;-0.30;91.40;;;;;;5044368;28;20162;-83
2021/12/11 09:14:53;;;;;;;64.47;25.30;;;-0.20;91.40;;;;;;5040100;28;20566;-85
2021/12/11 09:17:28;;;;;;;75.70;26.37;;;-0.20;91.40;;;;;;5059810;28;20167;-83
2021/12/11 09:20:04;;;;;;;74.87;27.93;;;-0.10;91.50;;;;;;5044970;28;20074;-84
2021/12/11 09:22:51;;;;;;;68.83;26.30;;;0.00;91.50;;;;;;5043618;28;24917;-83
2021/12/11 09:25:26;;;;;;;68.37;25.27;;;0.00;91.60;;;;;;5058171;28;20599;-81
2021/12/11 09:28:18;;;;;;;74.00;27.67;;;0.10;91.60;;;;;;5042352;28;20530;-83
2021/12/11 09:31:02;;;;;;;68.07;25.67;;;0.20;91.70;;;;;;5043934;28;20090;-83
2021/12/11 09:33:33;;;;;;;79.23;28.97;;;0.30;91.70;;;;;;5041091;28;20101;-81
2021/12/11 09:36:15;;;;;;;82.80;29.57;;;0.30;91.70;;;;;;5041320;28;20086;-83
2021/12/11 09:38:47;;;;;;;73.68;27.52;;;0.40;91.80;;;;;;5043577;28;20433;-83
2021/12/11 09:41:21;;;;;;;75.23;29.13;;;0.50;91.80;;;;;;5061420;28;20444;-83
2021/12/11 09:43:59;;;;;;;76.93;29.70;;;0.60;91.90;;;;;;5045707;28;20539;-83
2021/12/11 09:46:30;;;;;;;61.93;25.53;;;0.60;91.90;;;;;;5044045;28;20067;-84
2021/12/11 09:48:59;;;;;;;72.63;28.17;;;0.70;91.90;;;;;;5041279;28;21257;-84
2021/12/11 09:51:32;;;;;;;72.83;27.40;;;0.70;92.00;;;;;;5043137;28;20071;-84
2021/12/11 09:54:00;;;;;;;68.00;28.13;;;0.80;92.00;;;;;;5059159;28;20580;-84
2021/12/11 09:56:33;;;;;;;69.67;28.70;;;0.90;92.00;;;;;;5061773;28;20634;-84
2021/12/11 09:59:03;;;;;;;74.17;28.00;;;1.00;92.10;;;;;;5043322;28;20102;-85
2021/12/11 10:01:35;;;;;;;73.27;27.90;;;1.10;92.10;;;;;;5043381;28;20085;-85
2021/12/11 10:04:10;;;;;;;74.78;28.52;;;1.10;92.10;;;;;;5042962;28;20084;-84
2021/12/11 10:06:43;;;;;;;76.80;27.60;;;1.20;92.20;;;;;;5043953;28;20140;-85
2021/12/11 10:09:31;;;;;;;70.67;28.03;;;1.30;92.10;;;;;;5040041;28;20079;-83
2021/12/11 10:12:07;;;;;;;64.60;26.57;;;1.40;92.20;;;;;;5044484;28;20212;-83
2021/12/11 10:14:37;;;;;;;70.33;28.80;;;1.50;92.20;;;;;;5043959;28;20109;-83
2021/12/11 10:17:36;;;;;;;79.43;30.33;;;1.50;92.10;;;;;;5060578;28;20098;-84
2021/12/11 10:20:07;;;;;;;78.70;29.63;;;1.60;92.10;;;;;;5039048;28;20117;-83
2021/12/11 10:22:35;;;;;;;80.53;31.38;;;1.70;92.20;;;;;;5040401;28;20499;-82
2021/12/11 10:25:04;;;;;;;78.93;30.17;;;1.70;92.20;;;;;;5026619;28;20491;-82
2021/12/11 10:27:31;;;;;;;85.57;31.27;;;1.70;92.20;;;;;;5044214;28;20067;-84
2021/12/11 10:29:59;;;;;;;86.23;32.47;;;1.80;92.30;;;;;;5038717;28;20068;-85
2021/12/11 10:32:30;;;;;;;84.00;33.05;;;1.80;92.30;;;;;;5028217;28;20079;-85
2021/12/11 10:35:00;;;;;;;85.20;32.10;;;1.80;92.30;;;;;;5043030;28;20095;-85
2021/12/11 10:37:32;;;;;;;81.93;31.88;;;1.90;92.40;;;;;;5044466;28;20537;-86
2021/12/11 10:40:05;;;;;;;86.20;33.80;;;2.00;92.40;;;;;;5046628;28;20351;-86
2021/12/11 10:42:31;;;;;;;88.32;33.78;;;2.00;92.40;;;;;;5042324;28;20809;-86
2021/12/11 10:44:59;;;;;;;84.72;34.60;;;2.10;92.50;;;;;;5046920;28;20073;-86
2021/12/11 10:47:33;;;;;;;82.70;30.77;;;2.10;92.50;;;;;;5049915;28;20109;-87
2021/12/11 10:50:04;;;;;;;82.72;31.00;;;2.10;92.40;;;;;;5043847;28;20082;-87
2021/12/11 10:52:30;;;;;;;81.70;31.75;;;2.20;92.40;;;;;;5032209;28;20130;-87
2021/12/11 10:55:01;;;;;;;88.65;32.72;;;2.10;92.40;;;;;;5048655;28;20450;-86
2021/12/11 10:57:28;;;;;;;90.28;32.20;;;2.20;92.50;;;;;;5046943;28;20072;-86
2021/12/11 10:59:56;;;;;;;90.05;32.80;;;2.20;92.40;;;;;;5014180;28;20167;-86
2021/12/11 11:02:29;;;;;;;95.65;34.47;;;2.20;92.40;;;;;;5043535;28;20072;-85
2021/12/11 11:05:00;;;;;;;100.18;33.10;;;2.20;92.40;;;;;;5049795;28;20437;-86
2021/12/11 11:07:27;;;;;;;103.03;30.92;;;2.20;92.40;;;;;;5046322;28;20082;-86
2021/12/11 11:09:57;;;;;;;94.68;30.23;;;2.20;92.40;;;;;;5046692;28;20075;-86
2021/12/11 11:12:25;;;;;;;86.57;32.15;;;2.30;92.40;;;;;;5029991;28;20086;-86
2021/12/11 11:14:55;;;;;;;97.18;29.02;;;2.30;92.40;;;;;;5040882;28;20090;-86
2021/12/11 11:17:28;;;;;;;78.13;28.17;;;2.30;92.80;;;;;;5046531;28;20147;-87
2021/12/11 11:19:54;;;;;;;77.05;29.35;;;2.30;92.40;;;;;;5046927;28;20442;-87
2021/12/11 11:22:24;;;;;;;78.15;29.27;;;2.30;92.30;;;;;;5048261;28;20098;-87
2021/12/11 11:25:00;;;;;;;74.82;29.27;;;2.30;92.40;;;;;;5047694;28;20087;-88
2021/12/11 11:27:27;;;;;;;78.03;29.98;;;2.30;92.40;;;;;;5047739;28;20070;-87
2021/12/11 11:29:56;;;;;;;87.28;31.42;;;2.30;92.30;;;;;;5052971;28;20441;-87
2021/12/11 11:32:31;;;;;;;82.82;31.90;;;2.40;92.40;;;;;;5052048;28;20082;-84
2021/12/11 11:35:10;;;;;;;79.13;29.23;;;2.40;92.40;;;;;;5071057;28;20093;-83
2021/12/11 11:37:36;;;;;;;85.03;31.42;;;2.40;92.40;;;;;;5047288;28;20101;-86
2021/12/11 11:40:09;;;;;;;91.80;32.25;;;2.40;92.30;;;;;;5049968;28;20422;-81
2021/12/11 11:42:37;;;;;;;86.78;32.28;;;2.40;92.40;;;;;;5046288;28;20097;-82
2021/12/11 11:45:05;;;;;;;94.45;32.05;;;2.40;92.30;;;;;;5049060;28;20415;-82
2021/12/11 11:47:31;;;;;;;91.65;32.00;;;2.40;92.30;;;;;;5048719;28;20957;-82
2021/12/11 11:49:59;;;;;;;88.18;30.85;;;2.30;92.30;;;;;;5034249;28;20185;-81
2021/12/11 11:52:27;;;;;;;96.63;35.10;;;2.40;92.40;;;;;;5033757;28;20164;-80
2021/12/11 11:54:55;;;;;;;103.57;36.53;;;2.30;92.30;;;;;;5051748;28;20546;-79
2021/12/11 11:57:31;;;;;;;106.65;37.65;;;2.30;92.40;;;;;;5064051;28;20078;-81
2021/12/11 11:59:57;;;;;;;112.25;38.28;;;2.40;92.50;;;;;;5057579;28;20086;-81
2021/12/11 12:02:27;;;;;;;108.75;36.45;;;2.40;92.50;;;;;;5039871;28;20565;-82
2021/12/11 12:04:55;;;;;;;113.75;40.63;;;2.50;92.60;;;;;;5041608;28;20138;-82
2021/12/11 12:07:27;;;;;;;122.60;38.42;;;2.50;92.70;;;;;;5041746;28;20531;-81
2021/12/11 12:09:54;;;;;;;;;;;2.50;92.60;;;;;;5013407;28;20082;-81
2021/12/11 12:12:24;;;;;;;123.30;40.50;;;2.60;92.50;;;;;;5049594;28;19963;-83
2021/12/11 12:14:51;;;;;;;115.57;41.30;;;2.50;92.40;;;;;;5031353;28;20090;-83
2021/12/11 12:17:20;;;;;;;126.80;41.78;;;2.50;92.50;;;;;;5062548;28;20067;-84
2021/12/11 12:19:47;;;;;;;126.60;43.83;;;2.50;92.60;;;;;;5040791;28;20071;-83
2021/12/11 12:22:15;;;;;;;135.85;46.30;;;2.60;92.70;;;;;;5019981;28;20508;-83
2021/12/11 12:24:43;;;;;;;132.98;44.80;;;2.60;92.80;;;;;;5031384;28;20166;-83
2021/12/11 12:27:13;;;;;;;141.55;45.00;;;2.70;92.90;;;;;;5031538;28;20086;-84
2021/12/11 12:29:41;;;;;;;152.45;46.55;;;2.70;92.90;;;;;;5062604;28;20154;-83
2021/12/11 12:32:10;;;;;;;152.02;47.50;;;2.80;93.00;;;;;;5066319;28;20079;-80
2021/12/11 12:34:36;;;;;;;154.77;47.67;;;2.90;93.00;;;;;;5044328;28;20087;-82
2021/12/11 12:37:02;;;;;;;140.82;49.15;;;3.00;93.10;;;;;;5030467;28;20087;-83
2021/12/11 12:39:38;;;;;;;147.02;49.03;;;3.10;93.50;;;;;;5026056;28;20081;-82
2021/12/11 12:42:19;;;;;;;149.45;48.85;;;3.20;93.20;;;;;;5042452;28;20197;-83
2021/12/11 12:44:52;;;;;;;150.65;50.88;;;3.30;93.30;;;;;;5044000;28;20094;-82
2021/12/11 12:47:23;;;;;;;149.05;46.83;;;3.50;93.30;;;;;;5064507;28;20080;-80
2021/12/11 12:49:53;;;;;;;152.60;47.55;;;3.60;93.40;;;;;;5046633;28;20075;-82
2021/12/11 12:52:31;;;;;;;156.50;48.22;;;3.70;93.30;;;;;;5044355;28;20584;-82
2021/12/11 12:54:59;;;;;;;150.30;44.75;;;3.70;93.30;;;;;;5060227;28;20141;-80
2021/12/11 12:57:32;;;;;;;167.35;47.47;;;3.80;93.30;;;;;;5045079;28;20154;-80
2021/12/11 13:00:24;;;;;;;132.18;44.15;;;3.80;93.30;;;;;;5044471;28;20487;-80
2021/12/11 13:02:54;;;;;;;139.98;45.58;;;3.90;93.40;;;;;;5045521;28;20079;-84
2021/12/11 13:05:26;;;;;;;146.90;46.47;;;3.90;93.30;;;;;;5060997;28;20075;-82